createdAt,value
2022-11-02T00:01:25.375Z,66.80
2022-11-02T00:03:52.172Z,66.70
2022-11-02T00:06:18.962Z,66.50
2022-11-02T00:08:45.858Z,66.00
2022-11-02T00:11:12.636Z,66.00
2022-11-02T00:13:39.395Z,65.80
2022-11-02T00:16:10.822Z,65.50
2022-11-02T00:18:40.597Z,65.50
2022-11-02T00:21:07.411Z,65.30
2022-11-02T00:23:36.186Z,65.50
2022-11-02T00:26:03.157Z,65.30
2022-11-02T00:28:30.878Z,65.40
2022-11-02T00:30:57.941Z,65.40
2022-11-02T00:33:24.764Z,65.40
2022-11-02T00:35:51.470Z,65.50
2022-11-02T00:38:18.115Z,65.60
2022-11-02T00:40:44.827Z,65.20
2022-11-02T00:43:11.482Z,65.00
2022-11-02T00:45:38.183Z,65.00
2022-11-02T00:48:05.502Z,65.30
2022-11-02T00:50:32.613Z,65.20
2022-11-02T00:52:59.416Z,65.10
2022-11-02T00:55:26.160Z,65.10
2022-11-02T00:57:54.046Z,65.20
2022-11-02T01:00:21.082Z,65.30
2022-11-02T01:02:47.922Z,65.20
2022-11-02T01:05:14.795Z,65.60
2022-11-02T01:07:41.552Z,66.00
2022-11-02T01:10:09.726Z,66.20
2022-11-02T01:12:38.413Z,66.20
2022-11-02T01:15:06.226Z,64.90
2022-11-02T01:17:33.000Z,65.20
2022-11-02T01:19:59.705Z,64.40
2022-11-02T01:22:26.386Z,64.20
2022-11-02T01:24:53.117Z,63.70
2022-11-02T01:27:19.822Z,63.40
2022-11-02T01:29:46.492Z,63.50
2022-11-02T01:32:13.199Z,63.80
2022-11-02T01:34:39.887Z,63.60
2022-11-02T01:37:06.583Z,62.90
2022-11-02T01:39:33.250Z,62.70
2022-11-02T01:41:59.975Z,61.50
2022-11-02T01:44:35.181Z,61.00
2022-11-02T01:47:13.168Z,62.20
2022-11-02T01:49:43.766Z,61.50
2022-11-02T01:52:21.355Z,61.60
2022-11-02T01:54:59.095Z,61.10
2022-11-02T01:57:27.357Z,61.10
2022-11-02T02:00:00.225Z,61.30
2022-11-02T02:02:28.351Z,61.40
2022-11-02T02:05:05.060Z,61.60
2022-11-02T02:07:33.399Z,60.20
2022-11-02T02:10:00.637Z,60.30
2022-11-02T02:12:29.235Z,60.50
2022-11-02T02:14:56.012Z,60.50
2022-11-02T02:17:48.185Z,63.90
2022-11-02T02:20:45.695Z,60.90
2022-11-02T02:23:31.284Z,60.90
2022-11-02T02:26:42.888Z,60.50
2022-11-02T02:29:22.620Z,60.70
2022-11-02T02:31:55.904Z,60.90
2022-11-02T02:34:29.773Z,60.20
2022-11-02T02:37:09.842Z,59.90
2022-11-02T02:39:45.475Z,60.20
2022-11-02T02:42:21.521Z,60.80
2022-11-02T02:45:08.466Z,60.60
2022-11-02T02:47:43.913Z,60.90
2022-11-02T02:50:34.902Z,61.00
2022-11-02T02:53:03.918Z,61.70
2022-11-02T02:55:39.873Z,61.60
2022-11-02T02:58:08.277Z,61.40
2022-11-02T03:00:36.574Z,61.20
2022-11-02T03:03:05.470Z,61.50
2022-11-02T03:05:35.176Z,61.80
2022-11-02T03:08:08.954Z,61.90
2022-11-02T03:10:53.734Z,61.60
2022-11-02T03:13:43.706Z,61.70
2022-11-02T03:16:38.420Z,61.90
2022-11-02T03:19:23.064Z,62.60
2022-11-02T03:22:02.807Z,62.50
2022-11-02T03:24:42.075Z,62.50
2022-11-02T03:27:15.345Z,62.90
2022-11-02T03:30:08.696Z,62.80
2022-11-02T03:32:48.741Z,62.80
2022-11-02T03:36:03.650Z,63.20
2022-11-02T03:38:44.576Z,63.40
2022-11-02T03:41:12.968Z,63.20
2022-11-02T03:43:40.997Z,62.90
2022-11-02T03:46:10.637Z,62.80
2022-11-02T03:48:48.340Z,63.10
2022-11-02T03:51:20.024Z,62.90
2022-11-02T03:54:02.654Z,63.70
2022-11-02T03:56:38.459Z,63.10
2022-11-02T03:59:05.265Z,62.70
2022-11-02T04:01:37.382Z,62.90
2022-11-02T04:04:04.863Z,63.60
2022-11-02T04:06:32.386Z,63.80
2022-11-02T04:09:00.012Z,63.50
2022-11-02T04:11:46.436Z,63.00
2022-11-02T04:14:31.872Z,63.40
2022-11-02T04:17:17.421Z,63.50
2022-11-02T04:19:47.028Z,63.00
2022-11-02T04:22:35.497Z,63.30
2022-11-02T04:25:20.591Z,63.70
2022-11-02T04:27:49.777Z,64.50
2022-11-02T04:30:19.169Z,64.30
2022-11-02T04:33:06.333Z,64.60
2022-11-02T04:35:33.750Z,64.70
2022-11-02T04:38:20.832Z,65.40
2022-11-02T04:40:47.633Z,64.40
2022-11-02T04:43:14.320Z,64.50
2022-11-02T04:53:07.671Z,64.20
2022-11-02T04:55:35.416Z,64.40
2022-11-02T05:00:29.951Z,64.10
2022-11-02T05:02:56.663Z,65.30
2022-11-02T05:05:23.428Z,65.60
2022-11-02T05:07:50.081Z,65.50
2022-11-02T05:10:16.861Z,65.60
2022-11-02T05:12:43.590Z,65.90
2022-11-02T05:15:10.388Z,66.00
2022-11-02T05:17:37.062Z,66.00
2022-11-02T05:20:04.903Z,66.20
2022-11-02T05:22:31.777Z,66.10
2022-11-02T05:24:58.480Z,65.60
2022-11-02T05:27:25.212Z,65.80
2022-11-02T05:29:51.848Z,65.40
2022-11-02T05:32:18.721Z,65.50
2022-11-02T05:34:45.400Z,65.60
2022-11-02T05:37:12.148Z,65.50
2022-11-02T05:39:38.863Z,65.50
2022-11-02T05:42:05.571Z,65.60
2022-11-02T05:44:32.241Z,65.40
2022-11-02T05:46:58.907Z,65.20
2022-11-02T05:49:26.223Z,65.20
2022-11-02T05:51:52.922Z,65.20
2022-11-02T05:54:19.577Z,65.10
2022-11-02T05:56:46.503Z,65.20
2022-11-02T05:59:13.535Z,65.00
2022-11-02T06:01:40.359Z,64.90
2022-11-02T06:04:07.218Z,65.10
2022-11-02T06:06:35.033Z,65.20
2022-11-02T06:09:06.690Z,64.90
2022-11-02T06:11:33.915Z,64.70
2022-11-02T06:14:00.722Z,64.60
2022-11-02T06:16:27.387Z,64.40
2022-11-02T06:18:54.119Z,64.60
2022-11-02T06:21:21.021Z,64.50
2022-11-02T06:23:48.627Z,64.10
2022-11-02T06:26:15.567Z,64.10
2022-11-02T06:28:42.687Z,64.10
2022-11-02T06:31:09.360Z,63.90
2022-11-02T06:33:36.111Z,64.00
2022-11-02T06:36:02.862Z,63.70
2022-11-02T06:38:29.530Z,63.30
2022-11-02T06:40:58.837Z,63.20
2022-11-02T06:43:26.199Z,63.40
2022-11-02T06:45:55.607Z,63.50
2022-11-02T06:48:22.369Z,63.50
2022-11-02T06:50:49.042Z,63.30
2022-11-02T06:53:15.754Z,63.40
2022-11-02T06:55:42.539Z,63.20
2022-11-02T06:58:09.281Z,63.10
2022-11-02T07:00:36.349Z,62.90
2022-11-02T07:03:06.121Z,63.10
2022-11-02T07:05:33.987Z,63.00
2022-11-02T07:08:00.710Z,62.50
2022-11-02T07:10:28.192Z,62.70
2022-11-02T07:12:56.684Z,62.00
2022-11-02T07:15:25.237Z,62.10
2022-11-02T07:17:52.233Z,61.80
2022-11-02T07:20:19.184Z,61.20
2022-11-02T07:22:57.241Z,60.70
2022-11-02T07:25:25.206Z,61.40
2022-11-02T07:27:51.996Z,60.90
2022-11-02T07:30:19.563Z,60.00
2022-11-02T07:32:46.852Z,59.40
2022-11-02T07:35:14.918Z,59.10
2022-11-02T07:37:43.974Z,59.00
2022-11-02T07:40:12.190Z,58.80
2022-11-02T07:42:46.546Z,59.00
2022-11-02T07:45:13.889Z,59.40
2022-11-02T07:47:47.431Z,59.20
2022-11-02T07:50:16.132Z,59.60
2022-11-02T07:52:46.794Z,59.10
2022-11-02T07:55:14.758Z,59.60
2022-11-02T07:57:43.563Z,59.10
2022-11-02T08:00:11.855Z,59.30
2022-11-02T08:02:39.307Z,59.40
2022-11-02T08:05:06.357Z,59.80
2022-11-02T08:07:33.019Z,59.50
2022-11-02T08:09:59.669Z,59.40
2022-11-02T08:12:27.289Z,59.70
2022-11-02T08:14:54.098Z,59.70
2022-11-02T08:17:21.714Z,59.60
2022-11-02T08:19:48.435Z,59.70
2022-11-02T08:22:15.119Z,59.20
2022-11-02T08:24:44.058Z,59.40
2022-11-02T08:27:10.832Z,59.30
2022-11-02T08:29:37.669Z,59.20
2022-11-02T08:32:04.459Z,59.40
2022-11-02T08:34:31.127Z,59.10
2022-11-02T08:36:57.977Z,59.50
2022-11-02T08:39:24.724Z,59.00
2022-11-02T08:41:51.963Z,58.30
2022-11-02T08:44:21.083Z,58.50
2022-11-02T08:46:47.759Z,58.50
2022-11-02T08:49:14.450Z,58.50
2022-11-02T08:51:41.109Z,58.70
2022-11-02T08:54:07.822Z,58.70
2022-11-02T08:56:34.488Z,59.20
2022-11-02T08:59:01.124Z,59.50
2022-11-02T09:01:27.836Z,58.50
2022-11-02T09:03:54.695Z,59.30
2022-11-02T09:06:21.416Z,59.90
2022-11-02T09:08:48.416Z,59.50
2022-11-02T09:11:18.681Z,59.60
2022-11-02T09:13:45.390Z,59.80
2022-11-02T09:16:12.175Z,59.30
2022-11-02T09:18:38.993Z,59.30
2022-11-02T09:21:06.103Z,59.00
2022-11-02T09:23:33.122Z,59.50
2022-11-02T09:26:00.371Z,59.80
2022-11-02T09:28:27.334Z,60.10
2022-11-02T09:30:55.092Z,60.40
2022-11-02T09:33:21.734Z,60.40
2022-11-02T09:35:49.774Z,60.90
2022-11-02T09:38:18.565Z,60.60
2022-11-02T09:40:50.581Z,60.50
2022-11-02T09:43:32.361Z,60.40
2022-11-02T09:46:27.921Z,60.80
2022-11-02T09:49:00.154Z,61.00
2022-11-02T09:51:29.307Z,61.50
2022-11-02T09:54:20.397Z,61.70
2022-11-02T09:56:49.076Z,62.10
2022-11-02T09:59:16.997Z,61.20
2022-11-02T10:02:12.356Z,61.30
2022-11-02T10:05:11.638Z,61.80
2022-11-02T10:07:43.916Z,61.00
2022-11-02T10:10:21.286Z,60.60
2022-11-02T10:13:07.311Z,60.30
2022-11-02T10:15:44.902Z,59.50
2022-11-02T10:18:23.853Z,59.90
2022-11-02T10:20:58.751Z,59.40
2022-11-02T10:23:35.428Z,59.60
2022-11-02T10:26:03.123Z,59.10
2022-11-02T10:28:34.029Z,58.70
2022-11-02T10:31:02.539Z,58.80
2022-11-02T10:33:30.933Z,58.70
2022-11-02T10:36:19.695Z,58.80
2022-11-02T10:39:28.082Z,58.50
2022-11-02T10:42:06.859Z,58.40
2022-11-02T10:44:45.548Z,59.00
2022-11-02T10:47:20.285Z,58.50
2022-11-02T10:50:13.812Z,58.70
2022-11-02T10:52:44.821Z,58.80
2022-11-02T10:55:31.951Z,59.10
2022-11-02T10:58:00.816Z,60.00
2022-11-02T11:00:36.322Z,59.70
2022-11-02T11:03:15.294Z,59.70
2022-11-02T11:05:51.168Z,58.50
2022-11-02T11:08:35.400Z,58.90
2022-11-02T11:11:13.160Z,58.30
2022-11-02T11:16:46.442Z,57.80
2022-11-02T11:22:27.095Z,59.00
2022-11-02T11:25:14.255Z,59.10
2022-11-02T11:27:48.262Z,59.60
2022-11-02T11:30:59.651Z,59.00
2022-11-02T11:33:20.890Z,58.80
2022-11-02T11:35:50.663Z,58.70
2022-11-02T11:38:23.744Z,58.50
2022-11-02T11:41:02.283Z,58.10
2022-11-02T11:43:33.252Z,58.10
2022-11-02T11:46:12.575Z,58.60
2022-11-02T11:48:47.024Z,58.10
2022-11-02T11:51:38.558Z,57.00
2022-11-02T11:54:19.687Z,57.10
2022-11-02T11:56:47.639Z,57.00
2022-11-02T11:59:42.397Z,56.80
2022-11-02T12:02:27.595Z,56.10
2022-11-02T12:05:17.323Z,54.60
2022-11-02T12:07:55.713Z,53.90
2022-11-02T12:10:40.962Z,54.20
2022-11-02T12:13:23.392Z,54.70
2022-11-02T12:16:09.004Z,54.50
2022-11-02T12:19:10.532Z,54.30
2022-11-02T12:21:58.449Z,54.00
2022-11-02T12:24:43.894Z,53.70
2022-11-02T12:27:43.594Z,53.40
2022-11-02T12:30:20.546Z,53.30
2022-11-02T12:33:05.416Z,53.10
2022-11-02T12:36:13.457Z,51.80
2022-11-02T12:38:53.535Z,52.70
2022-11-02T12:41:39.081Z,52.70
2022-11-02T12:44:31.410Z,52.40
2022-11-02T12:47:25.076Z,51.50
2022-11-02T12:50:13.572Z,50.80
2022-11-02T12:53:02.582Z,50.90
2022-11-02T12:55:39.025Z,50.50
2022-11-02T12:58:21.891Z,51.00
2022-11-02T13:00:53.037Z,50.80
2022-11-02T13:03:38.666Z,51.20
2022-11-02T13:06:10.573Z,51.60
2022-11-02T13:08:52.253Z,51.10
2022-11-02T13:11:59.064Z,49.90
2022-11-02T13:14:29.223Z,50.60
2022-11-02T13:17:23.278Z,50.40
2022-11-02T13:20:00.547Z,51.00
2022-11-02T13:22:35.422Z,50.80
2022-11-02T13:25:17.346Z,50.70
2022-11-02T13:28:11.108Z,51.30
2022-11-02T13:30:40.343Z,50.40
2022-11-02T13:33:41.604Z,49.70
2022-11-02T13:36:09.669Z,49.30
2022-11-02T13:38:42.866Z,49.60
2022-11-02T13:41:28.254Z,49.90
2022-11-02T13:44:32.756Z,50.30
2022-11-02T13:47:09.268Z,50.30
2022-11-02T13:49:39.293Z,49.30
2022-11-02T13:52:15.158Z,49.70
2022-11-02T13:54:46.620Z,49.70
2022-11-02T13:57:27.678Z,49.70
2022-11-02T13:59:54.410Z,49.90
2022-11-02T14:02:23.220Z,50.00
2022-11-02T14:04:50.770Z,50.40
2022-11-02T14:07:32.483Z,50.10
2022-11-02T14:10:09.776Z,50.60
2022-11-02T14:12:48.320Z,50.20
2022-11-02T14:15:14.896Z,50.50
2022-11-02T14:17:53.670Z,51.20
2022-11-02T14:20:39.984Z,51.10
2022-11-02T14:23:09.692Z,51.00
2022-11-02T14:25:58.371Z,51.30
2022-11-02T14:28:31.807Z,50.90
2022-11-02T14:31:04.611Z,51.20
2022-11-02T14:33:52.835Z,51.30
2022-11-02T14:36:19.677Z,51.30
2022-11-02T14:39:13.919Z,52.20
2022-11-02T14:42:02.503Z,52.00
2022-11-02T14:45:16.166Z,52.10
2022-11-02T14:47:42.972Z,52.70
2022-11-02T14:50:20.953Z,52.70
2022-11-02T14:53:07.830Z,53.00
2022-11-02T14:55:37.210Z,53.10
2022-11-02T14:58:16.322Z,53.30
2022-11-02T15:00:49.284Z,53.20
2022-11-02T15:03:29.475Z,53.40
2022-11-02T15:06:04.928Z,53.60
2022-11-02T15:08:35.528Z,54.00
2022-11-02T15:11:41.452Z,53.60
2022-11-02T15:14:36.129Z,54.00
2022-11-02T15:17:12.499Z,53.80
2022-11-02T15:19:40.590Z,53.60
2022-11-02T15:22:35.592Z,54.00
2022-11-02T15:25:21.462Z,54.00
2022-11-02T15:27:51.300Z,53.90
2022-11-02T15:30:25.304Z,54.00
2022-11-02T15:33:02.140Z,53.90
2022-11-02T15:35:36.851Z,54.00
2022-11-02T15:38:27.996Z,54.10
2022-11-02T15:41:26.583Z,53.80
2022-11-02T15:44:17.260Z,54.40
2022-11-02T15:47:13.369Z,53.90
2022-11-02T15:50:09.332Z,54.10
2022-11-02T15:53:01.558Z,54.40
2022-11-02T15:55:41.045Z,54.40
2022-11-02T15:58:31.376Z,54.60
2022-11-02T16:01:11.139Z,54.40
2022-11-02T16:03:42.774Z,54.50
2022-11-02T16:06:09.615Z,54.60
2022-11-02T16:08:38.894Z,54.70
2022-11-02T16:11:20.976Z,54.40
2022-11-02T16:14:08.006Z,54.50
2022-11-02T16:16:47.094Z,54.80
2022-11-02T16:19:21.803Z,54.60
2022-11-02T16:21:49.719Z,54.60
2022-11-02T16:24:16.885Z,54.70
2022-11-02T16:26:45.252Z,54.70
2022-11-02T16:29:17.958Z,54.70
2022-11-02T16:31:45.395Z,54.50
2022-11-02T16:34:24.063Z,54.70
2022-11-02T16:36:50.998Z,54.60
2022-11-02T16:39:20.267Z,55.00
2022-11-02T16:41:50.126Z,54.50
2022-11-02T16:44:32.158Z,54.40
2022-11-02T16:47:08.063Z,54.30
2022-11-02T16:49:55.544Z,54.40
2022-11-02T16:52:29.059Z,54.40
2022-11-02T16:54:55.739Z,54.40
2022-11-02T16:57:35.394Z,54.20
2022-11-02T17:00:15.506Z,54.40
2022-11-02T17:02:43.734Z,54.80
2022-11-02T17:05:20.672Z,55.00
2022-11-02T17:08:04.892Z,55.40
2022-11-02T17:10:34.116Z,55.40
2022-11-02T17:13:01.808Z,55.20
2022-11-02T17:15:32.147Z,55.10
2022-11-02T17:18:08.213Z,55.10
2022-11-02T17:20:36.856Z,54.70
2022-11-02T17:23:32.015Z,54.60
2022-11-02T17:26:24.273Z,54.50
2022-11-02T17:28:55.707Z,54.20
2022-11-02T17:31:34.488Z,54.50
2022-11-02T17:34:17.347Z,53.90
2022-11-02T17:36:45.898Z,53.90
2022-11-02T17:39:17.666Z,53.80
2022-11-02T17:42:05.682Z,53.70
2022-11-02T17:44:32.475Z,53.00
2022-11-02T17:46:59.547Z,52.80
2022-11-02T17:49:26.210Z,52.80
2022-11-02T17:51:52.881Z,52.80
2022-11-02T17:54:19.599Z,52.60
2022-11-02T17:56:46.260Z,52.80
2022-11-02T17:59:12.915Z,52.70
2022-11-02T18:01:39.687Z,52.50
2022-11-02T18:04:06.467Z,52.20
2022-11-02T18:06:33.250Z,52.10
2022-11-02T18:09:11.883Z,52.40
2022-11-02T18:11:40.018Z,51.90
2022-11-02T18:14:09.428Z,51.70
2022-11-02T18:16:36.130Z,51.70
2022-11-02T18:19:02.825Z,51.80
2022-11-02T18:21:29.626Z,51.90
2022-11-02T18:23:56.380Z,52.20
2022-11-02T18:26:54.472Z,52.40
2022-11-02T18:29:21.156Z,52.30
2022-11-02T18:31:47.812Z,52.00
2022-11-02T18:34:14.536Z,52.10
2022-11-02T18:36:41.761Z,52.50
2022-11-02T18:39:08.557Z,52.80
2022-11-02T18:41:36.929Z,52.60
2022-11-02T18:44:13.604Z,52.60
2022-11-02T18:46:41.459Z,52.80
2022-11-02T18:49:08.191Z,52.90
2022-11-02T18:51:34.991Z,52.90
2022-11-02T18:54:05.927Z,53.00
2022-11-02T18:56:32.728Z,52.80
2022-11-02T18:58:59.928Z,52.50
2022-11-02T19:01:26.948Z,52.60
2022-11-02T19:03:56.126Z,52.70
2022-11-02T19:06:42.343Z,52.90
2022-11-02T19:09:20.455Z,52.70
2022-11-02T19:12:09.296Z,52.60
2022-11-02T19:14:37.811Z,53.10
2022-11-02T19:17:05.191Z,53.50
2022-11-02T19:19:32.310Z,53.80
2022-11-02T19:21:59.213Z,52.80
2022-11-02T19:24:26.066Z,52.70
2022-11-02T19:26:52.866Z,53.00
2022-11-02T19:29:20.053Z,52.90
2022-11-02T19:31:47.087Z,52.80
2022-11-02T19:34:14.280Z,52.70
2022-11-02T19:36:41.011Z,52.70
2022-11-02T19:39:09.202Z,52.90
2022-11-02T19:41:37.683Z,52.90
2022-11-02T19:44:04.910Z,52.70
2022-11-02T19:46:31.923Z,53.30
2022-11-02T19:48:58.781Z,52.90
2022-11-02T19:51:34.363Z,52.70
2022-11-02T19:54:02.611Z,53.40
2022-11-02T19:56:31.575Z,53.00
2022-11-02T19:58:58.898Z,53.10
2022-11-02T20:01:28.162Z,53.00
2022-11-02T20:03:55.724Z,53.20
2022-11-02T20:06:37.090Z,53.20
2022-11-02T20:09:05.969Z,53.70
2022-11-02T20:11:33.073Z,53.20
2022-11-02T20:14:02.315Z,53.30
2022-11-02T20:16:29.558Z,53.90
2022-11-02T20:18:57.579Z,53.70
2022-11-02T20:21:31.521Z,53.70
2022-11-02T20:24:00.924Z,53.70
2022-11-02T20:26:31.236Z,53.90
2022-11-02T20:28:59.850Z,53.90
2022-11-02T20:31:28.570Z,53.90
2022-11-02T20:33:55.396Z,54.10
2022-11-02T20:36:22.362Z,54.00
2022-11-02T20:38:51.709Z,54.00
2022-11-02T20:41:20.383Z,54.10
2022-11-02T20:43:49.339Z,54.30
2022-11-02T20:46:41.404Z,54.40
2022-11-02T20:49:22.455Z,54.00
2022-11-02T20:51:56.189Z,54.30
2022-11-02T20:54:22.987Z,54.60
2022-11-02T20:56:50.514Z,54.60
2022-11-02T20:59:17.468Z,54.40
2022-11-02T21:01:44.578Z,54.60
2022-11-02T21:04:16.902Z,54.60
2022-11-02T21:06:47.840Z,54.70
2022-11-02T21:09:14.756Z,54.50
2022-11-02T21:12:00.183Z,54.60
2022-11-02T21:14:26.871Z,54.60
2022-11-02T21:16:53.609Z,54.70
2022-11-02T21:19:20.561Z,54.80
2022-11-02T21:21:47.263Z,54.70
2022-11-02T21:24:14.005Z,54.90
2022-11-02T21:26:40.748Z,54.90
2022-11-02T21:29:07.414Z,54.90
2022-11-02T21:31:34.171Z,54.80
2022-11-02T21:34:00.886Z,55.30
2022-11-02T21:36:27.520Z,55.10
2022-11-02T21:38:54.411Z,55.20
2022-11-02T21:41:26.515Z,55.60
2022-11-02T21:43:55.481Z,55.20
2022-11-02T21:46:22.416Z,55.40
2022-11-02T21:48:49.074Z,55.40
2022-11-02T21:51:18.890Z,55.30
2022-11-02T21:53:47.151Z,55.40
2022-11-02T21:56:16.946Z,55.60
2022-11-02T21:58:46.162Z,55.60
2022-11-02T22:01:36.290Z,55.80
2022-11-02T22:04:03.794Z,55.70
2022-11-02T22:06:31.682Z,55.90
2022-11-02T22:08:59.943Z,55.90
2022-11-02T22:11:29.939Z,55.80
2022-11-02T22:13:58.719Z,55.60
2022-11-02T22:16:27.772Z,55.70
2022-11-02T22:18:59.811Z,56.00
2022-11-02T22:21:29.057Z,55.90
2022-11-02T22:23:56.573Z,56.00
2022-11-02T22:26:25.177Z,56.00
2022-11-02T22:28:52.651Z,56.00
2022-11-02T22:31:22.790Z,56.10
2022-11-02T22:33:51.379Z,56.00
2022-11-02T22:36:19.501Z,56.10
2022-11-02T22:38:51.556Z,56.60
2022-11-02T22:41:24.077Z,56.30
2022-11-02T22:43:56.827Z,56.10
2022-11-02T22:46:24.943Z,56.00
2022-11-02T22:48:53.067Z,56.20
2022-11-02T22:51:21.412Z,56.40
2022-11-02T22:53:49.014Z,56.50
2022-11-02T22:56:17.648Z,56.60
2022-11-02T22:58:45.152Z,56.50
2022-11-02T23:01:16.309Z,57.00
2022-11-02T23:03:43.624Z,56.40
2022-11-02T23:06:10.669Z,56.50
2022-11-02T23:08:43.158Z,56.50
2022-11-02T23:11:23.007Z,56.40
2022-11-02T23:13:52.670Z,56.40
2022-11-02T23:16:21.178Z,56.60
2022-11-02T23:19:12.117Z,56.60
2022-11-02T23:21:40.916Z,56.60
2022-11-02T23:24:26.410Z,56.60
2022-11-02T23:26:53.807Z,56.70
2022-11-02T23:29:39.309Z,56.50
2022-11-02T23:32:35.963Z,56.40
2022-11-02T23:35:31.992Z,56.70
2022-11-02T23:38:04.333Z,56.50
2022-11-02T23:40:32.142Z,56.70
2022-11-02T23:42:58.914Z,56.50
2022-11-02T23:45:25.615Z,56.40
2022-11-02T23:47:58.118Z,56.90
2022-11-02T23:50:47.121Z,57.00
2022-11-02T23:53:34.678Z,56.80
2022-11-02T23:56:20.131Z,56.50
2022-11-02T23:58:47.114Z,56.40
